createdAt,value
2023-03-06T00:00:31.621Z,13.97
2023-03-06T00:02:58.418Z,14.27
2023-03-06T00:05:27.509Z,11.67
2023-03-06T00:07:54.231Z,12.60
2023-03-06T00:10:29.487Z,12.47
2023-03-06T00:12:59.247Z,12.63
2023-03-06T00:15:27.736Z,12.47
2023-03-06T00:17:55.736Z,10.67
2023-03-06T00:20:23.533Z,12.97
2023-03-06T00:22:50.391Z,13.07
2023-03-06T00:25:19.807Z,10.47
2023-03-06T00:27:46.692Z,12.47
2023-03-06T00:30:17.450Z,11.93
2023-03-06T00:32:44.746Z,12.27
2023-03-06T00:35:12.415Z,12.57
2023-03-06T00:37:40.379Z,10.53
2023-03-06T00:40:09.626Z,11.93
2023-03-06T00:42:36.331Z,11.63
2023-03-06T00:45:03.549Z,12.93
2023-03-06T00:47:30.227Z,16.67
2023-03-06T00:49:56.920Z,11.83
2023-03-06T00:52:23.632Z,11.97
2023-03-06T00:54:50.376Z,11.23
2023-03-06T00:57:17.000Z,12.80
2023-03-06T00:59:43.655Z,11.00
2023-03-06T01:02:10.369Z,11.83
2023-03-06T01:04:37.065Z,10.13
2023-03-06T01:07:03.761Z,13.13
2023-03-06T01:09:30.404Z,11.67
2023-03-06T01:11:57.106Z,11.90
2023-03-06T01:14:24.273Z,11.70
2023-03-06T01:16:51.149Z,12.47
2023-03-06T01:19:18.060Z,11.23
2023-03-06T01:21:44.725Z,10.23
2023-03-06T01:24:11.404Z,12.57
2023-03-06T01:26:38.122Z,13.47
2023-03-06T01:29:04.922Z,13.07
2023-03-06T01:31:31.667Z,11.23
2023-03-06T01:33:58.425Z,14.27
2023-03-06T01:36:25.098Z,11.03
2023-03-06T01:38:51.740Z,17.10
2023-03-06T01:41:18.494Z,11.00
2023-03-06T01:43:47.157Z,15.97
2023-03-06T01:46:13.773Z,13.80
2023-03-06T01:48:40.691Z,13.77
2023-03-06T01:51:07.359Z,13.60
2023-03-06T01:53:34.093Z,13.07
2023-03-06T01:56:00.832Z,13.67
2023-03-06T01:58:27.583Z,11.50
2023-03-06T02:00:57.096Z,13.33
2023-03-06T02:03:29.051Z,12.87
2023-03-06T02:05:56.352Z,11.40
2023-03-06T02:08:24.194Z,14.37
2023-03-06T02:11:10.859Z,12.80
2023-03-06T02:13:39.298Z,13.27
2023-03-06T02:16:08.710Z,13.47
2023-03-06T02:18:36.868Z,11.33
2023-03-06T02:21:08.258Z,15.23
2023-03-06T02:23:53.579Z,14.97
2023-03-06T02:26:21.648Z,17.43
2023-03-06T02:28:48.278Z,13.07
2023-03-06T02:31:24.932Z,13.67
2023-03-06T02:34:14.655Z,14.03
2023-03-06T02:36:55.036Z,16.87
2023-03-06T02:39:26.771Z,14.30
2023-03-06T02:41:53.895Z,18.13
2023-03-06T02:44:22.013Z,15.10
2023-03-06T02:46:48.676Z,14.50
2023-03-06T02:49:15.350Z,13.93
2023-03-06T02:51:42.236Z,14.37
2023-03-06T02:54:08.866Z,13.03
2023-03-06T02:56:35.829Z,14.10
2023-03-06T02:59:02.813Z,14.37
2023-03-06T03:01:29.552Z,17.37
2023-03-06T03:03:56.198Z,13.93
2023-03-06T03:06:22.877Z,16.17
2023-03-06T03:08:49.507Z,16.90
2023-03-06T03:11:16.165Z,16.47
2023-03-06T03:13:42.829Z,13.07
2023-03-06T03:16:15.908Z,12.17
2023-03-06T03:18:47.953Z,13.40
2023-03-06T03:21:15.420Z,14.13
2023-03-06T03:23:42.051Z,17.43
2023-03-06T03:26:10.047Z,15.57
2023-03-06T03:28:36.987Z,16.53
2023-03-06T03:31:05.628Z,17.50
2023-03-06T03:33:33.103Z,12.33
2023-03-06T03:36:01.314Z,14.23
2023-03-06T03:38:28.791Z,17.50
2023-03-06T03:40:55.592Z,17.83
2023-03-06T03:43:22.613Z,15.43
2023-03-06T03:45:49.252Z,18.93
2023-03-06T03:48:15.853Z,18.27
2023-03-06T03:50:42.506Z,17.13
2023-03-06T03:53:09.244Z,16.20
2023-03-06T03:55:36.550Z,14.43
2023-03-06T03:58:03.270Z,15.70
2023-03-06T04:00:29.878Z,17.50
2023-03-06T04:02:56.536Z,14.83
2023-03-06T04:05:23.298Z,17.10
2023-03-06T04:07:49.963Z,16.47
2023-03-06T04:10:16.626Z,13.13
2023-03-06T04:12:43.233Z,17.97
2023-03-06T04:15:10.153Z,16.10
2023-03-06T04:17:36.877Z,15.73
2023-03-06T04:20:06.813Z,15.53
2023-03-06T04:22:33.444Z,16.77
2023-03-06T04:25:00.081Z,15.63
2023-03-06T04:27:26.814Z,15.27
2023-03-06T04:29:56.148Z,15.60
2023-03-06T04:32:23.866Z,13.83
2023-03-06T04:34:50.688Z,12.70
2023-03-06T04:37:22.094Z,14.77
2023-03-06T04:39:48.919Z,16.10
2023-03-06T04:42:15.561Z,14.63
2023-03-06T04:44:42.191Z,16.80
2023-03-06T04:47:10.168Z,14.43
2023-03-06T04:49:36.855Z,14.93
2023-03-06T04:52:04.308Z,16.10
2023-03-06T04:54:31.204Z,16.67
2023-03-06T04:56:57.808Z,17.97
2023-03-06T04:59:24.655Z,17.40
2023-03-06T05:01:52.019Z,16.20
2023-03-06T05:04:18.698Z,16.37
2023-03-06T05:06:45.424Z,15.73
2023-03-06T05:09:12.095Z,15.23
2023-03-06T05:11:38.692Z,17.93
2023-03-06T05:14:05.350Z,17.00
2023-03-06T05:16:32.020Z,19.80
2023-03-06T05:18:58.663Z,17.23
2023-03-06T05:21:25.283Z,22.10
2023-03-06T05:23:51.917Z,15.60
2023-03-06T05:26:18.532Z,17.73
2023-03-06T05:28:45.225Z,16.70
2023-03-06T05:31:11.936Z,17.90
2023-03-06T05:33:40.942Z,20.83
2023-03-06T05:36:09.194Z,24.43
2023-03-06T05:38:36.103Z,15.23
2023-03-06T05:41:02.761Z,19.63
2023-03-06T05:43:29.631Z,20.03
2023-03-06T05:46:04.237Z,18.83
2023-03-06T05:48:31.438Z,20.87
2023-03-06T05:50:59.155Z,20.77
2023-03-06T05:53:26.755Z,18.87
2023-03-06T05:56:04.438Z,25.27
2023-03-06T05:58:32.742Z,24.37
2023-03-06T06:01:00.122Z,24.77
2023-03-06T06:03:27.174Z,26.57
2023-03-06T06:05:53.942Z,27.03
2023-03-06T06:08:21.747Z,28.67
2023-03-06T06:10:49.026Z,27.03
2023-03-06T06:13:16.650Z,20.60
2023-03-06T06:15:43.256Z,20.70
2023-03-06T06:18:09.878Z,27.07
2023-03-06T06:20:37.459Z,22.77
2023-03-06T06:23:04.414Z,24.30
2023-03-06T06:25:31.670Z,26.80
2023-03-06T06:27:58.504Z,25.00
2023-03-06T06:30:25.446Z,23.20
2023-03-06T06:32:52.104Z,21.30
2023-03-06T06:35:18.780Z,21.33
2023-03-06T06:37:45.411Z,22.40
2023-03-06T06:40:12.476Z,22.20
2023-03-06T06:42:40.360Z,21.40
2023-03-06T06:45:08.744Z,26.60
2023-03-06T06:47:38.122Z,21.10
2023-03-06T06:50:05.307Z,20.73
2023-03-06T06:52:31.908Z,25.70
2023-03-06T06:54:58.586Z,25.17
2023-03-06T06:57:25.290Z,24.57
2023-03-06T06:59:53.938Z,23.27
2023-03-06T07:02:20.857Z,22.67
2023-03-06T07:05:02.431Z,23.63
2023-03-06T07:07:29.811Z,21.87
2023-03-06T07:09:56.693Z,21.17
2023-03-06T07:12:23.344Z,22.93
2023-03-06T07:14:49.985Z,25.43
2023-03-06T07:17:16.730Z,26.87
2023-03-06T07:19:43.371Z,23.13
2023-03-06T07:22:12.826Z,21.30
2023-03-06T07:24:39.460Z,28.03
2023-03-06T07:27:06.218Z,21.17
2023-03-06T07:29:34.369Z,27.53
2023-03-06T07:32:01.168Z,22.17
2023-03-06T07:34:27.899Z,25.57
2023-03-06T07:36:54.575Z,25.13
2023-03-06T07:39:21.295Z,22.93
2023-03-06T07:41:48.025Z,27.27
2023-03-06T07:44:14.669Z,28.70
2023-03-06T07:46:41.444Z,24.63
2023-03-06T07:49:08.276Z,25.77
2023-03-06T07:51:34.924Z,26.43
2023-03-06T07:54:01.587Z,24.70
2023-03-06T07:56:28.543Z,25.50
2023-03-06T07:58:56.169Z,22.00
2023-03-06T08:01:24.448Z,21.00
2023-03-06T08:03:51.697Z,23.80
2023-03-06T08:06:27.578Z,23.43
2023-03-06T08:08:55.540Z,26.37
2023-03-06T08:11:25.207Z,22.23
2023-03-06T08:13:53.764Z,24.30
2023-03-06T08:16:22.127Z,21.57
2023-03-06T08:18:48.887Z,26.37
2023-03-06T08:21:17.949Z,24.50
2023-03-06T08:23:45.636Z,21.10
2023-03-06T08:26:14.888Z,24.10
2023-03-06T08:28:42.083Z,27.47
2023-03-06T08:31:24.186Z,26.37
2023-03-06T08:33:51.207Z,23.30
2023-03-06T08:36:17.905Z,24.00
2023-03-06T08:38:44.573Z,21.10
2023-03-06T08:41:11.300Z,24.60
2023-03-06T08:43:38.013Z,19.60
2023-03-06T08:46:04.882Z,20.50
2023-03-06T08:48:31.796Z,20.67
2023-03-06T08:50:58.510Z,21.20
2023-03-06T08:53:40.456Z,18.90
2023-03-06T08:56:14.812Z,19.73
2023-03-06T08:58:41.708Z,20.10
2023-03-06T09:01:18.173Z,20.87
2023-03-06T09:03:45.042Z,21.23
2023-03-06T09:06:12.856Z,21.93
2023-03-06T09:08:42.929Z,21.23
2023-03-06T09:11:14.612Z,20.13
2023-03-06T09:13:42.510Z,20.63
2023-03-06T09:16:10.688Z,21.37
2023-03-06T09:18:37.508Z,17.20
2023-03-06T09:21:04.938Z,16.90
2023-03-06T09:23:31.743Z,18.73
2023-03-06T09:26:00.004Z,16.93
2023-03-06T09:28:27.117Z,16.63
2023-03-06T09:30:54.290Z,16.77
2023-03-06T09:33:21.408Z,17.27
2023-03-06T09:35:54.569Z,19.63
2023-03-06T09:38:26.832Z,14.93
2023-03-06T09:41:00.392Z,18.67
2023-03-06T09:43:38.407Z,15.77
2023-03-06T09:46:16.886Z,15.50
2023-03-06T09:48:55.211Z,16.03
2023-03-06T09:51:32.029Z,13.70
2023-03-06T09:54:11.777Z,17.53
2023-03-06T09:56:38.523Z,14.63
2023-03-06T09:59:21.776Z,14.77
2023-03-06T10:02:12.079Z,15.20
2023-03-06T10:04:46.068Z,15.73
2023-03-06T10:07:18.967Z,18.60
2023-03-06T10:09:51.989Z,13.40
2023-03-06T10:12:26.259Z,14.33
2023-03-06T10:15:06.693Z,15.07
2023-03-06T10:17:37.672Z,15.60
2023-03-06T10:20:22.458Z,17.40
2023-03-06T10:23:03.883Z,14.33
2023-03-06T10:25:48.026Z,18.37
2023-03-06T10:28:17.647Z,14.57
2023-03-06T10:30:56.200Z,16.60
2023-03-06T10:33:50.245Z,13.67
2023-03-06T10:36:19.051Z,14.97
2023-03-06T10:38:48.489Z,14.23
2023-03-06T10:41:28.275Z,15.30
2023-03-06T10:44:00.641Z,15.50
2023-03-06T10:46:31.869Z,14.73
2023-03-06T10:49:09.112Z,15.73
2023-03-06T10:51:35.801Z,13.60
2023-03-06T10:54:24.157Z,18.63
2023-03-06T10:56:50.809Z,17.50
2023-03-06T10:59:28.153Z,14.23
2023-03-06T11:01:57.571Z,14.40
2023-03-06T11:04:28.664Z,13.00
2023-03-06T11:07:20.032Z,13.03
2023-03-06T11:10:07.831Z,12.93
2023-03-06T11:12:43.516Z,12.63
2023-03-06T11:15:23.696Z,13.07
2023-03-06T11:18:23.497Z,15.83
2023-03-06T11:20:54.257Z,14.07
2023-03-06T11:23:41.949Z,13.53
2023-03-06T11:26:08.543Z,12.10
2023-03-06T11:28:42.159Z,14.13
2023-03-06T11:31:19.007Z,12.33
2023-03-06T11:34:01.611Z,12.87
2023-03-06T11:37:00.692Z,17.93
2023-03-06T11:39:43.516Z,12.33
2023-03-06T11:42:40.919Z,16.37
2023-03-06T11:45:16.561Z,15.30
2023-03-06T11:47:52.894Z,16.87
2023-03-06T11:50:34.742Z,13.53
2023-03-06T11:53:04.676Z,16.57
2023-03-06T11:55:49.310Z,15.30
2023-03-06T11:58:53.782Z,14.03
2023-03-06T12:01:44.736Z,13.20
2023-03-06T12:04:17.647Z,12.80
2023-03-06T12:07:01.776Z,14.93
2023-03-06T12:09:41.793Z,14.03
2023-03-06T12:12:20.386Z,14.70
2023-03-06T12:15:08.884Z,13.67
2023-03-06T12:17:52.004Z,10.87
2023-03-06T12:20:42.523Z,15.90
2023-03-06T12:23:41.799Z,12.07
2023-03-06T12:26:23.509Z,14.00
2023-03-06T12:29:07.838Z,11.83
2023-03-06T12:31:56.424Z,14.20
2023-03-06T12:34:50.419Z,13.20
2023-03-06T12:37:27.100Z,14.57
2023-03-06T12:40:31.594Z,14.00
2023-03-06T12:43:16.294Z,12.97
2023-03-06T12:45:44.258Z,13.30
2023-03-06T12:48:22.964Z,12.80
2023-03-06T12:50:50.713Z,13.10
2023-03-06T12:53:28.325Z,18.30
2023-03-06T12:55:57.442Z,14.80
2023-03-06T12:58:29.991Z,13.07
2023-03-06T13:01:23.946Z,13.90
2023-03-06T13:04:16.951Z,12.90
2023-03-06T13:07:01.758Z,12.23
2023-03-06T13:09:40.370Z,12.93
2023-03-06T13:12:40.347Z,13.33
2023-03-06T13:15:29.552Z,13.20
2023-03-06T13:17:57.258Z,11.07
2023-03-06T13:20:43.898Z,18.47
2023-03-06T13:23:29.142Z,12.13
2023-03-06T13:25:57.861Z,12.77
2023-03-06T13:28:54.628Z,16.17
2023-03-06T13:31:36.237Z,12.27
2023-03-06T13:34:07.422Z,9.97
2023-03-06T13:36:39.696Z,9.97
2023-03-06T13:39:13.087Z,11.03
2023-03-06T13:41:54.630Z,8.83
2023-03-06T13:44:24.149Z,10.63
2023-03-06T13:47:08.299Z,14.17
2023-03-06T13:49:35.474Z,9.90
2023-03-06T13:52:39.011Z,9.90
2023-03-06T13:55:11.677Z,8.77
2023-03-06T13:57:41.022Z,9.70
2023-03-06T14:00:32.942Z,9.93
2023-03-06T14:03:47.686Z,12.07
2023-03-06T14:06:37.134Z,10.90
2023-03-06T14:09:13.732Z,12.20
2023-03-06T14:11:49.728Z,13.90
2023-03-06T14:14:17.128Z,11.63
2023-03-06T14:16:50.542Z,12.07
2023-03-06T14:19:20.277Z,13.03
2023-03-06T14:21:51.017Z,10.13
2023-03-06T14:24:20.096Z,10.53
2023-03-06T14:26:51.468Z,14.23
2023-03-06T14:29:29.847Z,11.83
2023-03-06T14:31:58.770Z,12.73
2023-03-06T14:34:30.940Z,13.50
2023-03-06T14:37:03.484Z,12.10
2023-03-06T14:39:41.843Z,12.07
2023-03-06T14:42:14.210Z,11.77
2023-03-06T14:44:40.870Z,11.87
2023-03-06T14:47:28.024Z,12.57
2023-03-06T14:50:27.286Z,13.80
2023-03-06T14:52:59.453Z,12.10
2023-03-06T14:55:28.329Z,12.17
2023-03-06T14:57:58.081Z,13.47
2023-03-06T15:00:30.398Z,13.97
2023-03-06T15:02:57.935Z,15.17
2023-03-06T15:05:28.390Z,10.37
2023-03-06T15:07:59.365Z,14.57
2023-03-06T15:10:28.841Z,14.57
2023-03-06T15:12:55.869Z,13.43
2023-03-06T15:15:29.346Z,13.67
2023-03-06T15:17:56.087Z,9.50
2023-03-06T15:20:48.724Z,12.53
2023-03-06T15:23:20.733Z,10.93
2023-03-06T15:25:59.880Z,13.80
2023-03-06T15:28:38.658Z,11.40
2023-03-06T15:31:17.056Z,12.50
2023-03-06T15:33:43.824Z,11.07
2023-03-06T15:36:21.562Z,9.40
2023-03-06T15:38:48.293Z,9.60
2023-03-06T15:41:35.840Z,12.50
2023-03-06T15:44:10.601Z,9.93
2023-03-06T15:46:37.236Z,12.00
2023-03-06T15:49:07.175Z,11.80
2023-03-06T15:51:33.823Z,11.93
2023-03-06T15:54:11.222Z,10.93
2023-03-06T15:56:41.643Z,11.60
2023-03-06T15:59:23.072Z,13.43
2023-03-06T16:01:50.392Z,14.90
2023-03-06T16:04:18.178Z,14.43
2023-03-06T16:06:45.889Z,16.17
2023-03-06T16:09:13.690Z,18.77
2023-03-06T16:11:44.685Z,16.70
2023-03-06T16:14:23.914Z,16.37
2023-03-06T16:16:52.628Z,16.67
2023-03-06T16:19:26.817Z,16.10
2023-03-06T16:21:55.285Z,15.93
2023-03-06T16:24:22.039Z,17.67
2023-03-06T16:26:54.788Z,16.97
2023-03-06T16:29:24.351Z,18.90
2023-03-06T16:31:51.279Z,16.80
2023-03-06T16:34:19.705Z,17.93
2023-03-06T16:36:47.508Z,17.17
2023-03-06T16:39:18.462Z,17.50
2023-03-06T16:41:49.229Z,15.17
2023-03-06T16:44:18.630Z,19.33
2023-03-06T16:46:47.824Z,17.83
2023-03-06T16:49:22.584Z,18.60
2023-03-06T16:51:49.544Z,22.40
2023-03-06T16:54:16.228Z,18.33
2023-03-06T16:56:43.046Z,17.30
2023-03-06T16:59:10.244Z,18.70
2023-03-06T17:01:37.780Z,19.70
2023-03-06T17:04:04.588Z,18.30
2023-03-06T17:06:31.288Z,19.73
2023-03-06T17:08:58.097Z,16.63
2023-03-06T17:11:25.090Z,16.53
2023-03-06T17:13:51.899Z,17.77
2023-03-06T17:16:18.610Z,17.20
2023-03-06T17:18:46.886Z,20.37
2023-03-06T17:21:17.259Z,20.10
2023-03-06T17:23:44.496Z,19.47
2023-03-06T17:26:15.298Z,19.47
2023-03-06T17:28:42.769Z,17.47
2023-03-06T17:31:14.091Z,18.07
2023-03-06T17:33:41.095Z,17.00
2023-03-06T17:36:08.192Z,20.33
2023-03-06T17:38:35.106Z,19.13
2023-03-06T17:41:04.084Z,17.03
2023-03-06T17:43:31.456Z,19.67
2023-03-06T17:46:01.927Z,19.33
2023-03-06T17:48:28.562Z,22.03
2023-03-06T17:50:56.107Z,19.50
2023-03-06T17:53:23.242Z,17.07
2023-03-06T17:55:50.031Z,20.17
2023-03-06T17:58:16.842Z,16.70
2023-03-06T18:00:43.859Z,16.13
2023-03-06T18:03:10.562Z,23.40
2023-03-06T18:05:37.807Z,16.60
2023-03-06T18:08:05.157Z,32.77
2023-03-06T18:10:31.951Z,29.13
2023-03-06T18:12:58.675Z,18.00
2023-03-06T18:15:25.333Z,17.97
2023-03-06T18:17:52.095Z,18.13
2023-03-06T18:20:18.912Z,18.00
2023-03-06T18:22:45.590Z,17.00
2023-03-06T18:25:12.290Z,15.97
2023-03-06T18:27:39.436Z,17.93
2023-03-06T18:30:06.612Z,17.43
2023-03-06T18:32:33.237Z,16.87
2023-03-06T18:34:59.975Z,17.80
2023-03-06T18:37:26.688Z,17.87
2023-03-06T18:39:53.999Z,18.63
2023-03-06T18:42:20.687Z,18.93
2023-03-06T18:44:50.877Z,18.70
2023-03-06T18:47:17.554Z,18.10
2023-03-06T18:49:45.914Z,18.43
2023-03-06T18:52:12.861Z,19.57
2023-03-06T18:54:39.588Z,19.47
2023-03-06T18:57:07.044Z,19.47
2023-03-06T18:59:33.640Z,15.83
2023-03-06T19:02:00.369Z,20.50
2023-03-06T19:04:27.397Z,19.20
2023-03-06T19:06:54.903Z,23.67
2023-03-06T19:09:21.954Z,20.77
2023-03-06T19:11:49.560Z,19.03
2023-03-06T19:14:16.743Z,20.50
2023-03-06T19:16:43.439Z,17.70
2023-03-06T19:19:10.214Z,21.97
2023-03-06T19:21:36.835Z,21.03
2023-03-06T19:24:03.672Z,18.50
2023-03-06T19:26:30.324Z,19.53
2023-03-06T19:28:56.982Z,21.13
2023-03-06T19:31:26.293Z,22.77
2023-03-06T19:34:06.883Z,19.63
2023-03-06T19:36:40.966Z,22.57
2023-03-06T19:39:08.030Z,23.20
2023-03-06T19:41:34.919Z,22.13
2023-03-06T19:44:05.877Z,17.83
2023-03-06T19:46:33.104Z,19.53
2023-03-06T19:49:05.596Z,20.97
2023-03-06T19:51:32.256Z,22.60
2023-03-06T19:53:58.933Z,19.87
2023-03-06T19:56:28.702Z,22.07
2023-03-06T19:58:55.844Z,19.83
2023-03-06T20:01:25.211Z,22.80
2023-03-06T20:03:58.430Z,22.57
2023-03-06T20:06:31.230Z,20.27
2023-03-06T20:08:58.105Z,20.73
2023-03-06T20:11:27.263Z,23.13
2023-03-06T20:13:53.980Z,21.37
2023-03-06T20:16:20.645Z,22.57
2023-03-06T20:18:49.731Z,19.87
2023-03-06T20:21:16.478Z,21.00
2023-03-06T20:23:43.504Z,20.17
2023-03-06T20:26:15.257Z,21.27
2023-03-06T20:28:42.518Z,20.90
2023-03-06T20:31:11.543Z,20.43
2023-03-06T20:33:38.279Z,18.77
2023-03-06T20:36:11.493Z,26.87
2023-03-06T20:38:38.962Z,20.27
2023-03-06T20:41:05.577Z,19.47
2023-03-06T20:43:32.273Z,18.80
2023-03-06T20:46:00.956Z,19.50
2023-03-06T20:48:28.347Z,20.83
2023-03-06T20:51:03.471Z,19.57
2023-03-06T20:53:30.232Z,18.70
2023-03-06T20:56:00.112Z,22.90
2023-03-06T20:58:29.967Z,21.90
2023-03-06T21:00:57.548Z,19.23
2023-03-06T21:03:24.873Z,24.43
2023-03-06T21:05:51.527Z,19.80
2023-03-06T21:08:18.188Z,19.47
2023-03-06T21:10:46.645Z,20.73
2023-03-06T21:13:14.024Z,21.07
2023-03-06T21:15:42.261Z,15.87
2023-03-06T21:18:09.757Z,18.30
2023-03-06T21:20:40.089Z,19.33
2023-03-06T21:23:07.208Z,19.20
2023-03-06T21:25:34.435Z,20.73
2023-03-06T21:28:01.212Z,17.73
2023-03-06T21:30:29.297Z,18.67
2023-03-06T21:32:56.138Z,20.23
2023-03-06T21:35:22.853Z,17.53
2023-03-06T21:37:49.552Z,17.90
2023-03-06T21:40:16.288Z,18.03
2023-03-06T21:42:43.044Z,16.70
2023-03-06T21:45:10.128Z,17.03
2023-03-06T21:47:38.704Z,17.27
2023-03-06T21:50:07.016Z,15.57
2023-03-06T21:52:33.670Z,18.23
2023-03-06T21:55:00.345Z,16.00
2023-03-06T21:57:27.029Z,16.77
2023-03-06T21:59:54.859Z,15.93
2023-03-06T22:02:21.686Z,18.00
2023-03-06T22:04:52.548Z,15.37
2023-03-06T22:07:19.987Z,14.23
2023-03-06T22:09:47.189Z,16.43
2023-03-06T22:12:13.878Z,15.00
2023-03-06T22:14:42.795Z,16.77
2023-03-06T22:17:09.427Z,15.87
2023-03-06T22:19:36.081Z,16.73
2023-03-06T22:22:03.721Z,15.07
2023-03-06T22:24:31.848Z,14.53
2023-03-06T22:26:58.865Z,16.37
2023-03-06T22:29:25.823Z,14.73
2023-03-06T22:31:53.000Z,16.33
2023-03-06T22:34:19.649Z,17.40
2023-03-06T22:36:46.379Z,13.80
2023-03-06T22:39:14.008Z,15.37
2023-03-06T22:41:41.042Z,14.87
2023-03-06T22:44:07.716Z,18.17
2023-03-06T22:46:34.393Z,16.17
2023-03-06T22:49:02.273Z,16.67
2023-03-06T22:51:29.493Z,18.63
2023-03-06T22:53:56.225Z,16.57
2023-03-06T22:56:23.723Z,16.60
2023-03-06T22:58:50.648Z,15.33
2023-03-06T23:01:20.397Z,20.33
2023-03-06T23:03:49.895Z,19.20
2023-03-06T23:06:24.057Z,15.37
2023-03-06T23:08:54.295Z,17.67
2023-03-06T23:11:22.404Z,20.73
2023-03-06T23:13:49.073Z,20.30
2023-03-06T23:16:15.879Z,16.30
2023-03-06T23:18:42.603Z,17.60
2023-03-06T23:21:12.073Z,15.20
2023-03-06T23:23:39.034Z,16.20
2023-03-06T23:26:07.493Z,17.13
2023-03-06T23:28:34.941Z,15.70
2023-03-06T23:31:10.759Z,17.50
2023-03-06T23:33:38.781Z,18.67
2023-03-06T23:36:08.749Z,19.30
2023-03-06T23:38:36.091Z,16.73
2023-03-06T23:41:08.282Z,16.23
2023-03-06T23:43:35.143Z,17.50
2023-03-06T23:46:02.100Z,16.87
2023-03-06T23:48:29.228Z,17.10
2023-03-06T23:50:58.909Z,17.57
2023-03-06T23:53:26.010Z,17.43
2023-03-06T23:55:52.708Z,16.30
2023-03-06T23:58:19.924Z,17.87
